createdAt,value
2023-04-09T00:00:08.080Z,9.681084
2023-04-09T00:01:08.063Z,9.681039
2023-04-09T00:02:08.077Z,9.681024
2023-04-09T00:03:08.278Z,9.680999
2023-04-09T00:04:08.159Z,9.681068
2023-04-09T00:05:08.023Z,9.681092
2023-04-09T00:06:08.016Z,9.681136
2023-04-09T00:07:08.028Z,9.681118
2023-04-09T00:08:08.028Z,9.681139
2023-04-09T00:09:08.013Z,9.681155
2023-04-09T00:10:08.005Z,9.681164
2023-04-09T00:11:07.993Z,9.681116
2023-04-09T00:12:07.980Z,9.681086
2023-04-09T00:13:07.992Z,9.681026
2023-04-09T00:14:08.501Z,9.681030
2023-04-09T00:15:11.002Z,9.681009
2023-04-09T00:16:09.225Z,9.681062
2023-04-09T00:17:07.941Z,9.680978
2023-04-09T00:18:07.985Z,9.681059
2023-04-09T00:19:07.947Z,9.681107
2023-04-09T00:20:07.984Z,9.681044
2023-04-09T00:21:07.927Z,9.681148
2023-04-09T00:22:07.948Z,9.681133
2023-04-09T00:23:07.899Z,9.681036
2023-04-09T00:24:07.926Z,9.680983
2023-04-09T00:25:07.931Z,9.681065
2023-04-09T00:26:07.939Z,9.681005
2023-04-09T00:27:07.885Z,9.681073
2023-04-09T00:28:07.900Z,9.681076
2023-04-09T00:29:07.890Z,9.681113
2023-04-09T00:30:07.912Z,9.681015
2023-04-09T00:31:07.898Z,9.681122
2023-04-09T00:32:07.948Z,9.681077
2023-04-09T00:33:07.870Z,9.681073
2023-04-09T00:34:07.864Z,9.681067
2023-04-09T00:35:07.904Z,9.680951
2023-04-09T00:36:07.940Z,9.681062
2023-04-09T00:37:07.833Z,9.681020
2023-04-09T00:38:07.842Z,9.681082
2023-04-09T00:39:07.823Z,9.681026
2023-04-09T00:40:07.822Z,9.681148
2023-04-09T00:41:07.834Z,9.680969
2023-04-09T00:42:07.850Z,9.681022
2023-04-09T00:43:07.804Z,9.681067
2023-04-09T00:44:07.815Z,9.681089
2023-04-09T00:45:07.814Z,9.681108
2023-04-09T00:46:07.852Z,9.681054
2023-04-09T00:47:07.842Z,9.681078
2023-04-09T00:48:07.850Z,9.681081
2023-04-09T00:49:07.810Z,9.681061
2023-04-09T00:50:07.809Z,9.681075
2023-04-09T00:51:07.777Z,9.681130
2023-04-09T00:52:07.770Z,9.681055
2023-04-09T00:53:07.784Z,9.681122
2023-04-09T00:54:07.790Z,9.681118
2023-04-09T00:55:07.763Z,9.681114
2023-04-09T00:56:07.775Z,9.681068
2023-04-09T00:57:07.762Z,9.680958
2023-04-09T00:58:07.754Z,9.680964
2023-04-09T00:59:07.718Z,9.680966
2023-04-09T01:00:07.774Z,9.680943
2023-04-09T01:01:07.791Z,9.680978
2023-04-09T01:02:07.816Z,9.680900
2023-04-09T01:03:07.786Z,9.680906
2023-04-09T01:04:07.704Z,9.680949
2023-04-09T01:05:07.679Z,9.681006
2023-04-09T01:06:07.702Z,9.680977
2023-04-09T01:07:07.712Z,9.680970
2023-04-09T01:08:07.684Z,9.680985
2023-04-09T01:09:07.660Z,9.681002
2023-04-09T01:10:07.753Z,9.681066
2023-04-09T01:11:07.644Z,9.681030
2023-04-09T01:12:07.648Z,9.681003
2023-04-09T01:13:07.629Z,9.680991
2023-04-09T01:14:07.642Z,9.681020
2023-04-09T01:15:07.668Z,9.680979
2023-04-09T01:16:07.719Z,9.680981
2023-04-09T01:17:07.605Z,9.680973
2023-04-09T01:18:07.713Z,9.680958
2023-04-09T01:19:07.600Z,9.680939
2023-04-09T01:20:07.631Z,9.680942
2023-04-09T01:21:07.597Z,9.680986
2023-04-09T01:22:07.666Z,9.681028
2023-04-09T01:23:07.581Z,9.681003
2023-04-09T01:24:07.611Z,9.680997
2023-04-09T01:25:07.579Z,9.681023
2023-04-09T01:26:07.588Z,9.680967
2023-04-09T01:27:07.599Z,9.680983
2023-04-09T01:28:07.562Z,9.681019
2023-04-09T01:29:07.563Z,9.681042
2023-04-09T01:30:07.553Z,9.680999
2023-04-09T01:31:07.717Z,9.680985
2023-04-09T01:32:07.627Z,9.681054
2023-04-09T01:33:07.531Z,9.681046
2023-04-09T01:34:07.542Z,9.681060
2023-04-09T01:35:07.506Z,9.681068
2023-04-09T01:36:07.575Z,9.681027
2023-04-09T01:37:07.511Z,9.681008
2023-04-09T01:38:07.521Z,9.680979
2023-04-09T01:39:07.502Z,9.681002
2023-04-09T01:40:07.523Z,9.680976
2023-04-09T01:41:07.492Z,9.680964
2023-04-09T01:42:07.488Z,9.681008
2023-04-09T01:43:07.499Z,9.680996
2023-04-09T01:44:07.487Z,9.681005
2023-04-09T01:45:07.453Z,9.680981
2023-04-09T01:46:07.537Z,9.680985
2023-04-09T01:47:07.456Z,9.680958
2023-04-09T01:48:07.453Z,9.680958
2023-04-09T01:49:07.441Z,9.680972
2023-04-09T01:50:07.474Z,9.680995
2023-04-09T01:51:07.435Z,9.680964
2023-04-09T01:52:07.483Z,9.680988
2023-04-09T01:53:07.440Z,9.680963
2023-04-09T01:54:07.438Z,9.681003
2023-04-09T01:55:07.398Z,9.680961
2023-04-09T01:56:07.420Z,9.680968
2023-04-09T01:57:07.406Z,9.681013
2023-04-09T01:58:07.429Z,9.681013
2023-04-09T01:59:07.422Z,9.681051
2023-04-09T02:00:07.410Z,9.681049
2023-04-09T02:01:07.443Z,9.680970
2023-04-09T02:02:07.418Z,9.681012
2023-04-09T02:03:07.415Z,9.681027
2023-04-09T02:04:07.498Z,9.681040
2023-04-09T02:05:07.395Z,9.681078
2023-04-09T02:06:07.397Z,9.680951
2023-04-09T02:07:07.329Z,9.680946
2023-04-09T02:08:07.354Z,9.680984
2023-04-09T02:09:07.330Z,9.681014
2023-04-09T02:10:07.342Z,9.681023
2023-04-09T02:11:07.379Z,9.681021
2023-04-09T02:12:07.362Z,9.681060
2023-04-09T02:13:07.313Z,9.681047
2023-04-09T02:14:07.317Z,9.681071
2023-04-09T02:15:07.324Z,9.681072
2023-04-09T02:16:07.390Z,9.681053
2023-04-09T02:17:07.305Z,9.681062
2023-04-09T02:18:07.289Z,9.681095
2023-04-09T02:19:07.266Z,9.681059
2023-04-09T02:20:07.323Z,9.681026
2023-04-09T02:21:07.267Z,9.681015
2023-04-09T02:22:07.284Z,9.681041
2023-04-09T02:23:07.271Z,9.681069
2023-04-09T02:24:07.262Z,9.681052
2023-04-09T02:25:07.245Z,9.681020
2023-04-09T02:26:07.296Z,9.681016
2023-04-09T02:27:07.236Z,9.681028
2023-04-09T02:28:07.254Z,9.681045
2023-04-09T02:29:07.233Z,9.680994
2023-04-09T02:30:07.229Z,9.681019
2023-04-09T02:31:07.234Z,9.681026
2023-04-09T02:32:07.251Z,9.681054
2023-04-09T02:33:07.220Z,9.681066
2023-04-09T02:34:07.213Z,9.681074
2023-04-09T02:35:07.192Z,9.681055
2023-04-09T02:36:07.229Z,9.681037
2023-04-09T02:37:07.178Z,9.681077
2023-04-09T02:38:07.204Z,9.681052
2023-04-09T02:39:07.169Z,9.681050
2023-04-09T02:40:07.178Z,9.681021
2023-04-09T02:41:07.185Z,9.681039
2023-04-09T02:42:07.213Z,9.681059
2023-04-09T02:43:07.153Z,9.681136
2023-04-09T02:44:07.165Z,9.681114
2023-04-09T02:45:07.182Z,9.681193
2023-04-09T02:46:07.156Z,9.681084
2023-04-09T02:47:07.174Z,9.681120
2023-04-09T02:48:07.142Z,9.681130
2023-04-09T02:49:07.125Z,9.681098
2023-04-09T02:50:07.126Z,9.681034
2023-04-09T02:51:07.136Z,9.681095
2023-04-09T02:52:07.148Z,9.681055
2023-04-09T02:53:07.126Z,9.681005
2023-04-09T02:54:07.104Z,9.681068
2023-04-09T02:55:07.095Z,9.681057
2023-04-09T02:56:07.089Z,9.681093
2023-04-09T02:57:07.079Z,9.681069
2023-04-09T02:58:07.074Z,9.681052
2023-04-09T02:59:07.094Z,9.681111
2023-04-09T03:00:07.070Z,9.681077
2023-04-09T03:01:07.047Z,9.681007
2023-04-09T03:02:07.197Z,9.680974
2023-04-09T03:03:07.157Z,9.681017
2023-04-09T03:04:07.153Z,9.681108
2023-04-09T03:05:07.042Z,9.681054
2023-04-09T03:06:07.031Z,9.681113
2023-04-09T03:07:07.029Z,9.681099
2023-04-09T03:08:07.042Z,9.681058
2023-04-09T03:09:06.997Z,9.681069
2023-04-09T03:10:07.015Z,9.681100
2023-04-09T03:11:06.992Z,9.681153
2023-04-09T03:12:07.013Z,9.681089
2023-04-09T03:13:07.007Z,9.681056
2023-04-09T03:14:06.980Z,9.681138
2023-04-09T03:15:06.976Z,9.681169
2023-04-09T03:16:07.236Z,9.681089
2023-04-09T03:17:06.961Z,9.681175
2023-04-09T03:18:06.994Z,9.681194
2023-04-09T03:19:06.962Z,9.681147
2023-04-09T03:20:06.969Z,9.681091
2023-04-09T03:21:06.934Z,9.681106
2023-04-09T03:22:06.945Z,9.681125
2023-04-09T03:23:06.944Z,9.681195
2023-04-09T03:24:06.934Z,9.681108
2023-04-09T03:25:06.914Z,9.681004
2023-04-09T03:26:06.929Z,9.681027
2023-04-09T03:27:06.942Z,9.681075
2023-04-09T03:28:06.909Z,9.681132
2023-04-09T03:29:06.911Z,9.681217
2023-04-09T03:30:06.927Z,9.681167
2023-04-09T03:31:06.909Z,9.681231
2023-04-09T03:32:06.887Z,9.681144
2023-04-09T03:33:06.864Z,9.681053
2023-04-09T03:34:06.889Z,9.681038
2023-04-09T03:35:06.865Z,9.681067
2023-04-09T03:36:06.945Z,9.681119
2023-04-09T03:37:06.852Z,9.681160
2023-04-09T03:38:06.858Z,9.681107
2023-04-09T03:39:06.849Z,9.681112
2023-04-09T03:40:06.853Z,9.681074
2023-04-09T03:41:06.822Z,9.681087
2023-04-09T03:42:06.855Z,9.681179
2023-04-09T03:43:06.822Z,9.681155
2023-04-09T03:44:06.827Z,9.681182
2023-04-09T03:45:06.845Z,9.681335
2023-04-09T03:46:06.833Z,9.681313
2023-04-09T03:47:06.783Z,9.681203
2023-04-09T03:48:06.833Z,9.681152
2023-04-09T03:49:06.786Z,9.681229
2023-04-09T03:50:06.789Z,9.681183
2023-04-09T03:51:06.786Z,9.681183
2023-04-09T03:52:06.786Z,9.681119
2023-04-09T03:53:06.768Z,9.681127
2023-04-09T03:54:06.799Z,9.681128
2023-04-09T03:55:06.744Z,9.681238
2023-04-09T03:56:06.809Z,9.681243
2023-04-09T03:57:06.790Z,9.681196
2023-04-09T03:58:06.769Z,9.681124
2023-04-09T03:59:06.740Z,9.681052
2023-04-09T04:00:06.763Z,9.681178
2023-04-09T04:01:06.714Z,9.681193
2023-04-09T04:02:06.794Z,9.681170
2023-04-09T04:03:06.857Z,9.681159
2023-04-09T04:04:06.790Z,9.681285
2023-04-09T04:05:06.713Z,9.681170
2023-04-09T04:06:06.723Z,9.681223
2023-04-09T04:07:06.684Z,9.681273
2023-04-09T04:08:06.682Z,9.681272
2023-04-09T04:09:06.677Z,9.681305
2023-04-09T04:10:06.721Z,9.681276
2023-04-09T04:11:06.664Z,9.681165
2023-04-09T04:12:06.660Z,9.681212
2023-04-09T04:13:06.668Z,9.681101
2023-04-09T04:14:06.670Z,9.681104
2023-04-09T04:15:06.640Z,9.681065
2023-04-09T04:16:06.678Z,9.681105
2023-04-09T04:17:06.646Z,9.681037
2023-04-09T04:18:06.642Z,9.681089
2023-04-09T04:19:06.638Z,9.681060
2023-04-09T04:20:06.629Z,9.681059
2023-04-09T04:21:06.637Z,9.681020
2023-04-09T04:22:06.604Z,9.681026
2023-04-09T04:23:06.599Z,9.681065
2023-04-09T04:24:06.585Z,9.681098
2023-04-09T04:25:06.598Z,9.681141
2023-04-09T04:26:06.601Z,9.681141
2023-04-09T04:27:06.594Z,9.681115
2023-04-09T04:28:06.571Z,9.681077
2023-04-09T04:29:06.577Z,9.681082
2023-04-09T04:30:06.603Z,9.681061
2023-04-09T04:31:06.538Z,9.681087
2023-04-09T04:32:06.669Z,9.681172
2023-04-09T04:33:06.538Z,9.681098
2023-04-09T04:34:06.546Z,9.681085
2023-04-09T04:35:06.525Z,9.681057
2023-04-09T04:36:06.541Z,9.681029
2023-04-09T04:37:06.537Z,9.681017
2023-04-09T04:38:06.540Z,9.681061
2023-04-09T04:39:06.512Z,9.681092
2023-04-09T04:40:06.514Z,9.681095
2023-04-09T04:41:06.484Z,9.681074
2023-04-09T04:42:06.513Z,9.681037
2023-04-09T04:43:06.475Z,9.681040
2023-04-09T04:44:06.502Z,9.681085
2023-04-09T04:45:06.474Z,9.681087
2023-04-09T04:46:06.528Z,9.681106
2023-04-09T04:47:06.462Z,9.681124
2023-04-09T04:48:06.463Z,9.681022
2023-04-09T04:49:06.468Z,9.681003
2023-04-09T04:50:06.460Z,9.681057
2023-04-09T04:51:06.477Z,9.681069
2023-04-09T04:52:06.442Z,9.681105
2023-04-09T04:53:06.439Z,9.681104
2023-04-09T04:54:06.443Z,9.681113
2023-04-09T04:55:06.435Z,9.681150
2023-04-09T04:56:06.438Z,9.681140
2023-04-09T04:57:06.456Z,9.681097
2023-04-09T04:58:06.416Z,9.681094
2023-04-09T04:59:06.394Z,9.681052
2023-04-09T05:00:06.432Z,9.681055
2023-04-09T05:01:06.433Z,9.681077
2023-04-09T05:02:06.440Z,9.681056
2023-04-09T05:03:06.586Z,9.681052
2023-04-09T05:04:06.395Z,9.681045
2023-04-09T05:05:06.368Z,9.681070
2023-04-09T05:06:06.378Z,9.681096
2023-04-09T05:07:06.368Z,9.681090
2023-04-09T05:08:06.413Z,9.681052
2023-04-09T05:09:06.377Z,9.681004
2023-04-09T05:10:06.361Z,9.681070
2023-04-09T05:11:06.334Z,9.681105
2023-04-09T05:12:06.329Z,9.681118
2023-04-09T05:13:06.327Z,9.681045
2023-04-09T05:14:06.340Z,9.681048
2023-04-09T05:15:06.331Z,9.681046
2023-04-09T05:16:06.313Z,9.681056
2023-04-09T05:17:06.330Z,9.681073
2023-04-09T05:18:06.301Z,9.681072
2023-04-09T05:19:06.286Z,9.681032
2023-04-09T05:20:06.324Z,9.681037
2023-04-09T05:21:06.349Z,9.681037
2023-04-09T05:22:06.283Z,9.681067
2023-04-09T05:23:06.273Z,9.681079
2023-04-09T05:24:06.510Z,9.681082
2023-04-09T05:25:06.246Z,9.681067
2023-04-09T05:26:06.255Z,9.681001
2023-04-09T05:27:06.264Z,9.681024
2023-04-09T05:28:06.240Z,9.681041
2023-04-09T05:29:06.218Z,9.681005
2023-04-09T05:30:06.259Z,9.681039
2023-04-09T05:31:06.241Z,9.681026
2023-04-09T05:32:06.215Z,9.681042
2023-04-09T05:33:06.238Z,9.681031
2023-04-09T05:34:06.250Z,9.681021
2023-04-09T05:35:06.190Z,9.681015
2023-04-09T05:36:06.263Z,9.681087
2023-04-09T05:37:06.210Z,9.681089
2023-04-09T05:38:06.191Z,9.681062
2023-04-09T05:39:06.204Z,9.681102
2023-04-09T05:40:06.219Z,9.681037
2023-04-09T05:41:06.146Z,9.681055
2023-04-09T05:42:06.172Z,9.681072
2023-04-09T05:43:06.186Z,9.681040
2023-04-09T05:44:06.172Z,9.681012
2023-04-09T05:45:06.151Z,9.681019
2023-04-09T05:46:06.218Z,9.681065
2023-04-09T05:47:06.144Z,9.681046
2023-04-09T05:48:06.128Z,9.681058
2023-04-09T05:49:06.147Z,9.681071
2023-04-09T05:50:06.183Z,9.681026
2023-04-09T05:51:06.111Z,9.681005
2023-04-09T05:52:06.114Z,9.681005
2023-04-09T05:53:06.090Z,9.681011
2023-04-09T05:54:06.103Z,9.681052
2023-04-09T05:55:06.097Z,9.681018
2023-04-09T05:56:06.107Z,9.681028
2023-04-09T05:57:06.078Z,9.681039
2023-04-09T05:58:06.109Z,9.681029
2023-04-09T05:59:06.058Z,9.681034
2023-04-09T06:00:06.068Z,9.681030
2023-04-09T06:01:06.060Z,9.681003
2023-04-09T06:02:06.138Z,9.681026
2023-04-09T06:03:06.127Z,9.681014
2023-04-09T06:04:06.264Z,9.681041
2023-04-09T06:05:06.028Z,9.681045
2023-04-09T06:06:06.053Z,9.681045
2023-04-09T06:07:06.029Z,9.681037
2023-04-09T06:08:06.053Z,9.681053
2023-04-09T06:09:06.009Z,9.681064
2023-04-09T06:10:06.063Z,9.681114
2023-04-09T06:11:05.995Z,9.681073
2023-04-09T06:12:05.999Z,9.681113
2023-04-09T06:13:05.985Z,9.681095
2023-04-09T06:14:05.979Z,9.681045
2023-04-09T06:15:06.014Z,9.681095
2023-04-09T06:16:06.030Z,9.681047
2023-04-09T06:17:05.991Z,9.681017
2023-04-09T06:18:06.161Z,9.681063
2023-04-09T06:19:05.973Z,9.680982
2023-04-09T06:20:05.964Z,9.681005
2023-04-09T06:21:05.960Z,9.681021
2023-04-09T06:22:05.956Z,9.681114
2023-04-09T06:23:05.947Z,9.681053
2023-04-09T06:24:05.932Z,9.681081
2023-04-09T06:25:05.957Z,9.681026
2023-04-09T06:26:05.923Z,9.681030
2023-04-09T06:27:05.930Z,9.681067
2023-04-09T06:28:06.158Z,9.681002
2023-04-09T06:29:05.934Z,9.681028
2023-04-09T06:30:05.923Z,9.681074
2023-04-09T06:31:05.892Z,9.681044
2023-04-09T06:32:05.917Z,9.681049
2023-04-09T06:33:05.936Z,9.680998
2023-04-09T06:34:05.902Z,9.681064
2023-04-09T06:35:05.867Z,9.680986
2023-04-09T06:36:05.979Z,9.681056
2023-04-09T06:37:05.875Z,9.681039
2023-04-09T06:38:06.573Z,9.681041
2023-04-09T06:39:05.866Z,9.681062
2023-04-09T06:40:05.892Z,9.681049
2023-04-09T06:41:05.842Z,9.680993
2023-04-09T06:42:05.839Z,9.680958
2023-04-09T06:43:05.841Z,9.680967
2023-04-09T06:44:05.845Z,9.681003
2023-04-09T06:45:05.854Z,9.680916
2023-04-09T06:46:05.859Z,9.681010
2023-04-09T06:47:05.810Z,9.680958
2023-04-09T06:48:05.941Z,9.681015
2023-04-09T06:49:05.784Z,9.681020
2023-04-09T06:50:05.802Z,9.681042
2023-04-09T06:51:05.805Z,9.681000
2023-04-09T06:52:05.805Z,9.680980
2023-04-09T06:53:05.773Z,9.680986
2023-04-09T06:54:05.789Z,9.681019
2023-04-09T06:55:05.763Z,9.680990
2023-04-09T06:56:05.820Z,9.680987
2023-04-09T06:57:05.753Z,9.681014
2023-04-09T06:58:05.791Z,9.681030
2023-04-09T06:59:05.738Z,9.680992
2023-04-09T07:00:05.734Z,9.680992
2023-04-09T07:01:05.727Z,9.681059
2023-04-09T07:02:05.766Z,9.681026
2023-04-09T07:03:05.888Z,9.681013
2023-04-09T07:04:05.870Z,9.681029
2023-04-09T07:05:05.689Z,9.681021
2023-04-09T07:06:05.702Z,9.681004
2023-04-09T07:07:05.679Z,9.681007
2023-04-09T07:08:05.749Z,9.681033
2023-04-09T07:09:05.687Z,9.681071
2023-04-09T07:10:05.669Z,9.680970
2023-04-09T07:11:05.660Z,9.681170
2023-04-09T07:12:05.665Z,9.681008
2023-04-09T07:13:05.649Z,9.681079
2023-04-09T07:14:05.664Z,9.680864
2023-04-09T07:15:05.667Z,9.680966
2023-04-09T07:16:05.690Z,9.680992
2023-04-09T07:17:05.639Z,9.680943
2023-04-09T07:18:05.653Z,9.680999
2023-04-09T07:19:05.607Z,9.681029
2023-04-09T07:20:05.646Z,9.681042
2023-04-09T07:21:05.612Z,9.680956
2023-04-09T07:22:05.610Z,9.680926
2023-04-09T07:23:05.580Z,9.680997
2023-04-09T07:24:05.623Z,9.681009
2023-04-09T07:25:05.576Z,9.680965
2023-04-09T07:26:05.608Z,9.680984
2023-04-09T07:27:05.683Z,9.680928
2023-04-09T07:28:05.603Z,9.680956
2023-04-09T07:29:05.544Z,9.681002
2023-04-09T07:30:05.580Z,9.681005
2023-04-09T07:31:05.601Z,9.681046
2023-04-09T07:32:05.554Z,9.681021
2023-04-09T07:33:05.567Z,9.681058
2023-04-09T07:34:05.547Z,9.681057
2023-04-09T07:35:05.507Z,9.681046
2023-04-09T07:36:05.576Z,9.680999
2023-04-09T07:37:05.534Z,9.681052
2023-04-09T07:38:05.522Z,9.681071
2023-04-09T07:39:05.485Z,9.681046
2023-04-09T07:40:05.507Z,9.681040
2023-04-09T07:41:05.774Z,9.681031
2023-04-09T07:42:05.477Z,9.680978
2023-04-09T07:43:05.458Z,9.681015
2023-04-09T07:44:05.470Z,9.681032
2023-04-09T07:45:05.465Z,9.681018
2023-04-09T07:46:05.463Z,9.680987
2023-04-09T07:47:05.541Z,9.681003
2023-04-09T07:48:05.474Z,9.681020
2023-04-09T07:49:05.446Z,9.681034
2023-04-09T07:50:05.454Z,9.681028
2023-04-09T07:51:05.407Z,9.680989
2023-04-09T07:52:05.445Z,9.681012
2023-04-09T07:53:05.409Z,9.681046
2023-04-09T07:54:05.428Z,9.681043
2023-04-09T07:55:05.410Z,9.681004
2023-04-09T07:56:05.412Z,9.681000
2023-04-09T07:57:05.396Z,9.681024
2023-04-09T07:58:05.434Z,9.681004
2023-04-09T07:59:05.382Z,9.680966
2023-04-09T08:00:05.406Z,9.681001
2023-04-09T08:01:05.366Z,9.681040
2023-04-09T08:02:05.431Z,9.680904
2023-04-09T08:03:05.656Z,9.681059
2023-04-09T08:04:05.561Z,9.681160
2023-04-09T08:05:05.406Z,9.681055
2023-04-09T08:06:05.372Z,9.681087
2023-04-09T08:07:05.385Z,9.681087
2023-04-09T08:08:05.325Z,9.681054
2023-04-09T08:09:05.315Z,9.680956
2023-04-09T08:10:05.310Z,9.681026
2023-04-09T08:11:05.326Z,9.681041
2023-04-09T08:12:05.324Z,9.681026
2023-04-09T08:13:05.308Z,9.680987
2023-04-09T08:14:05.322Z,9.680971
2023-04-09T08:15:05.290Z,9.680983
2023-04-09T08:16:05.332Z,9.681025
2023-04-09T08:17:05.286Z,9.681027
2023-04-09T08:18:05.309Z,9.681016
2023-04-09T08:19:05.268Z,9.681004
2023-04-09T08:20:05.276Z,9.681019
2023-04-09T08:21:05.253Z,9.681077
2023-04-09T08:22:05.246Z,9.681006
2023-04-09T08:23:05.276Z,9.680911
2023-04-09T08:24:05.240Z,9.680994
2023-04-09T08:25:05.217Z,9.680998
2023-04-09T08:26:05.233Z,9.680984
2023-04-09T08:27:05.228Z,9.681004
2023-04-09T08:28:05.199Z,9.681028
2023-04-09T08:29:05.202Z,9.681050
2023-04-09T08:30:05.195Z,9.681029
2023-04-09T08:31:05.154Z,9.681022
2023-04-09T08:32:05.203Z,9.681002
2023-04-09T08:33:05.199Z,9.681074
2023-04-09T08:34:05.158Z,9.681009
2023-04-09T08:35:05.132Z,9.681043
2023-04-09T08:36:05.181Z,9.681011
2023-04-09T08:37:05.114Z,9.681025
2023-04-09T08:38:05.120Z,9.681011
2023-04-09T08:39:05.111Z,9.680986
2023-04-09T08:40:05.117Z,9.681063
2023-04-09T08:41:05.080Z,9.681051
2023-04-09T08:42:05.119Z,9.681026
2023-04-09T08:43:05.091Z,9.681037
2023-04-09T08:44:05.082Z,9.680968
2023-04-09T08:45:05.056Z,9.680969
2023-04-09T08:46:05.110Z,9.681037
2023-04-09T08:47:05.060Z,9.681018
2023-04-09T08:48:05.161Z,9.680996
2023-04-09T08:49:05.046Z,9.680983
2023-04-09T08:50:05.048Z,9.681013
2023-04-09T08:51:05.016Z,9.681026
2023-04-09T08:52:05.699Z,9.681035
2023-04-09T08:53:05.016Z,9.681056
2023-04-09T08:54:05.406Z,9.681053
2023-04-09T08:55:05.030Z,9.681041
2023-04-09T08:56:05.037Z,9.681022
2023-04-09T08:57:05.273Z,9.681026
2023-04-09T08:58:05.022Z,9.681002
2023-04-09T08:59:04.965Z,9.681032
2023-04-09T09:00:04.961Z,9.681011
2023-04-09T09:01:04.983Z,9.681022
2023-04-09T09:02:05.036Z,9.680975
2023-04-09T09:03:05.651Z,9.680965
2023-04-09T09:04:05.032Z,9.680990
2023-04-09T09:05:04.923Z,9.680995
2023-04-09T09:06:04.919Z,9.681016
2023-04-09T09:07:04.916Z,9.681029
2023-04-09T09:08:04.909Z,9.681020
2023-04-09T09:09:04.949Z,9.680987
2023-04-09T09:10:04.886Z,9.681000
2023-04-09T09:11:04.894Z,9.681003
2023-04-09T09:12:04.859Z,9.681036
2023-04-09T09:13:04.869Z,9.681025
2023-04-09T09:14:04.852Z,9.681011
2023-04-09T09:15:04.895Z,9.681043
2023-04-09T09:16:04.836Z,9.681018
2023-04-09T09:17:04.923Z,9.681020
2023-04-09T09:18:04.874Z,9.681010
2023-04-09T09:19:04.818Z,9.681005
2023-04-09T09:20:04.801Z,9.681005
2023-04-09T09:21:04.766Z,9.681021
2023-04-09T09:22:04.789Z,9.681009
2023-04-09T09:23:04.793Z,9.681056
2023-04-09T09:24:04.807Z,9.681047
2023-04-09T09:25:04.766Z,9.681087
2023-04-09T09:26:04.751Z,9.681057
2023-04-09T09:27:04.718Z,9.681028
2023-04-09T09:28:04.736Z,9.681091
2023-04-09T09:29:04.737Z,9.681026
2023-04-09T09:30:04.725Z,9.681057
2023-04-09T09:31:04.751Z,9.681073
2023-04-09T09:32:04.696Z,9.681025
2023-04-09T09:33:04.692Z,9.681000
2023-04-09T09:34:04.726Z,9.680999
2023-04-09T09:35:04.666Z,9.681032
2023-04-09T09:36:04.723Z,9.681031
2023-04-09T09:37:04.652Z,9.681074
2023-04-09T09:38:04.680Z,9.681036
2023-04-09T09:39:04.640Z,9.681048
2023-04-09T09:40:04.648Z,9.681096
2023-04-09T09:41:04.602Z,9.681057
2023-04-09T09:42:04.616Z,9.681106
2023-04-09T09:43:04.591Z,9.681066
2023-04-09T09:44:04.591Z,9.681052
2023-04-09T09:45:04.609Z,9.681035
2023-04-09T09:46:04.605Z,9.681050
2023-04-09T09:47:04.598Z,9.681011
2023-04-09T09:48:04.638Z,9.681054
2023-04-09T09:49:04.544Z,9.681042
2023-04-09T09:50:04.555Z,9.681074
2023-04-09T09:51:04.546Z,9.681092
2023-04-09T09:52:04.534Z,9.681028
2023-04-09T09:53:04.524Z,9.681106
2023-04-09T09:54:04.521Z,9.681049
2023-04-09T09:55:04.492Z,9.681041
2023-04-09T09:56:04.526Z,9.681048
2023-04-09T09:57:04.485Z,9.681050
2023-04-09T09:58:04.495Z,9.681036
2023-04-09T09:59:04.451Z,9.681090
2023-04-09T10:00:04.506Z,9.681038
2023-04-09T10:01:04.537Z,9.681122
2023-04-09T10:02:04.556Z,9.681012
2023-04-09T10:03:04.496Z,9.681049
2023-04-09T10:04:04.451Z,9.681076
2023-04-09T10:05:04.443Z,9.681100
2023-04-09T10:06:04.431Z,9.681071
2023-04-09T10:07:04.412Z,9.681019
2023-04-09T10:08:04.442Z,9.681013
2023-04-09T10:09:04.390Z,9.681087
2023-04-09T10:10:04.397Z,9.681023
2023-04-09T10:11:04.351Z,9.681005
2023-04-09T10:12:04.454Z,9.681007
2023-04-09T10:13:04.348Z,9.681005
2023-04-09T10:14:04.351Z,9.681070
2023-04-09T10:15:04.331Z,9.681088
2023-04-09T10:16:04.393Z,9.681087
2023-04-09T10:17:04.381Z,9.681064
2023-04-09T10:18:04.346Z,9.681059
2023-04-09T10:19:04.379Z,9.681048
2023-04-09T10:20:04.293Z,9.681036
2023-04-09T10:21:04.453Z,9.681046
2023-04-09T10:22:04.286Z,9.681011
2023-04-09T10:23:04.271Z,9.681094
2023-04-09T10:24:04.261Z,9.681017
2023-04-09T10:25:04.269Z,9.681050
2023-04-09T10:26:04.257Z,9.681027
2023-04-09T10:27:04.223Z,9.681134
2023-04-09T10:28:04.232Z,9.681050
2023-04-09T10:29:04.240Z,9.681087
2023-04-09T10:30:04.212Z,9.681112
2023-04-09T10:31:04.229Z,9.681055
2023-04-09T10:32:04.213Z,9.681024
2023-04-09T10:33:04.243Z,9.681094
2023-04-09T10:34:04.192Z,9.681087
2023-04-09T10:35:04.277Z,9.681015
2023-04-09T10:36:04.179Z,9.681037
2023-04-09T10:37:04.172Z,9.681055
2023-04-09T10:38:04.140Z,9.681001
2023-04-09T10:39:04.136Z,9.681001
2023-04-09T10:40:04.164Z,9.681083
2023-04-09T10:41:04.132Z,9.681009
2023-04-09T10:42:04.130Z,9.681117
2023-04-09T10:43:04.181Z,9.681124
2023-04-09T10:44:04.104Z,9.681151
2023-04-09T10:45:04.071Z,9.681055
2023-04-09T10:46:04.166Z,9.681037
2023-04-09T10:47:04.055Z,9.680971
2023-04-09T10:48:04.076Z,9.681133
2023-04-09T10:49:04.061Z,9.681021
2023-04-09T10:50:04.041Z,9.680959
2023-04-09T10:51:04.047Z,9.681043
2023-04-09T10:52:04.029Z,9.681081
2023-04-09T10:53:04.088Z,9.681073
2023-04-09T10:54:04.023Z,9.681035
2023-04-09T10:55:03.981Z,9.681017
2023-04-09T10:56:04.007Z,9.681028
2023-04-09T10:57:03.989Z,9.681046
2023-04-09T10:58:03.975Z,9.681058
2023-04-09T10:59:03.989Z,9.680987
2023-04-09T11:00:03.996Z,9.680993
2023-04-09T11:01:03.929Z,9.680979
2023-04-09T11:02:03.973Z,9.680985
2023-04-09T11:03:04.168Z,9.681027
2023-04-09T11:04:03.946Z,9.681029
2023-04-09T11:05:03.921Z,9.681037
2023-04-09T11:06:03.904Z,9.681015
2023-04-09T11:07:03.874Z,9.681048
2023-04-09T11:08:03.888Z,9.681070
2023-04-09T11:09:03.889Z,9.681066
2023-04-09T11:10:03.893Z,9.681051
2023-04-09T11:11:03.883Z,9.681057
2023-04-09T11:12:03.860Z,9.680988
2023-04-09T11:13:03.870Z,9.681003
2023-04-09T11:14:03.842Z,9.680989
2023-04-09T11:15:03.817Z,9.681062
2023-04-09T11:16:03.909Z,9.681084
2023-04-09T11:17:03.793Z,9.681049
2023-04-09T11:18:03.860Z,9.681077
2023-04-09T11:19:03.862Z,9.681043
2023-04-09T11:20:03.821Z,9.681140
2023-04-09T11:21:03.795Z,9.681102
2023-04-09T11:22:03.760Z,9.681021
2023-04-09T11:23:03.762Z,9.681058
2023-04-09T11:24:03.744Z,9.681075
2023-04-09T11:25:03.711Z,9.681186
2023-04-09T11:26:03.739Z,9.681084
2023-04-09T11:27:03.744Z,9.681096
2023-04-09T11:28:03.744Z,9.681067
2023-04-09T11:29:03.734Z,9.681127
2023-04-09T11:30:03.706Z,9.681098
2023-04-09T11:31:03.736Z,9.681064
2023-04-09T11:32:03.678Z,9.681102
2023-04-09T11:33:03.734Z,9.681157
2023-04-09T11:34:03.665Z,9.681133
2023-04-09T11:35:03.627Z,9.681240
2023-04-09T11:36:03.662Z,9.681134
2023-04-09T11:37:03.655Z,9.681039
2023-04-09T11:38:03.631Z,9.681082
2023-04-09T11:39:03.605Z,9.681084
2023-04-09T11:40:03.618Z,9.681016
2023-04-09T11:41:03.591Z,9.681068
2023-04-09T11:42:03.601Z,9.681027
2023-04-09T11:43:03.652Z,9.681083
2023-04-09T11:44:03.618Z,9.681068